createdAt,value
2023-05-25T00:10:01.982Z,48.07
2023-05-25T00:20:07.671Z,48.31
2023-05-25T00:30:11.681Z,48.62
2023-05-25T00:40:16.818Z,49.37
2023-05-25T00:50:35.270Z,49.17
2023-05-25T01:00:43.270Z,48.90
2023-05-25T01:10:50.313Z,48.80
2023-05-25T01:21:13.566Z,50.81
2023-05-25T01:31:23.716Z,50.45
2023-05-25T01:41:29.364Z,49.60
2023-05-25T01:51:50.023Z,49.13
2023-05-25T02:01:54.898Z,49.36
2023-05-25T02:11:58.725Z,49.25
2023-05-25T02:22:03.719Z,48.92
2023-05-25T02:32:07.633Z,48.39
2023-05-25T02:42:11.527Z,48.69
2023-05-25T02:52:15.632Z,48.86
2023-05-25T03:13:19.277Z,52.10
2023-05-25T03:23:23.969Z,53.49
2023-05-25T03:33:28.709Z,54.67
2023-05-25T03:43:32.573Z,55.39
2023-05-25T03:53:36.980Z,56.06
2023-05-25T04:03:41.301Z,57.24
2023-05-25T04:13:49.262Z,58.19
2023-05-25T04:23:52.878Z,58.63
2023-05-25T04:33:59.320Z,58.64
2023-05-25T04:44:11.385Z,57.93
2023-05-25T04:54:20.764Z,57.35
2023-05-25T05:04:25.933Z,56.04
2023-05-25T05:14:31.529Z,54.13
2023-05-25T05:24:36.364Z,49.41
2023-05-25T05:34:40.584Z,39.55
2023-05-25T05:44:57.736Z,40.13
2023-05-25T05:55:03.538Z,40.52
2023-05-25T06:05:08.098Z,40.64
2023-05-25T06:15:14.456Z,40.47
2023-05-25T06:25:20.565Z,40.21
2023-05-25T06:35:24.388Z,39.86
2023-05-25T06:45:30.716Z,39.35
2023-05-25T06:56:35.023Z,39.92
2023-05-25T07:06:40.846Z,39.28
2023-05-25T07:16:45.352Z,39.35
2023-05-25T07:26:54.457Z,40.86
2023-05-25T07:36:58.100Z,40.91
2023-05-25T07:47:01.955Z,41.19
2023-05-25T07:57:07.133Z,41.09
2023-05-25T08:07:11.736Z,40.97
2023-05-25T08:17:20.572Z,41.41
2023-05-25T08:27:24.188Z,40.21
2023-05-25T08:37:27.898Z,38.36
2023-05-25T08:47:34.025Z,37.38
2023-05-25T08:58:00.720Z,37.55
2023-05-25T09:08:11.618Z,38.88
2023-05-25T09:18:15.223Z,37.95
2023-05-25T09:28:27.046Z,37.23
2023-05-25T09:38:31.802Z,38.72
2023-05-25T09:48:36.561Z,39.60
2023-05-25T09:58:41.475Z,39.91
2023-05-25T10:08:46.021Z,39.79
2023-05-25T10:18:58.279Z,39.73
2023-05-25T10:29:04.802Z,39.08
2023-05-25T10:39:13.478Z,38.09
2023-05-25T10:49:37.676Z,37.73
2023-05-25T10:59:42.587Z,38.06
2023-05-25T11:09:58.503Z,38.34
2023-05-25T11:20:06.419Z,38.09
2023-05-25T11:30:12.802Z,37.53
2023-05-25T11:40:17.146Z,36.51
2023-05-25T11:50:22.858Z,36.44
2023-05-25T12:00:28.636Z,36.01
2023-05-25T12:10:32.389Z,36.48
2023-05-25T12:20:41.559Z,37.18
2023-05-25T12:30:47.861Z,38.08
2023-05-25T12:41:08.195Z,38.33
2023-05-25T12:51:12.422Z,39.04
2023-05-25T13:01:18.214Z,37.80
2023-05-25T13:11:22.136Z,37.75
2023-05-25T13:21:28.676Z,36.77
2023-05-25T13:31:32.616Z,37.85
2023-05-25T13:41:36.384Z,37.75
2023-05-25T13:51:41.842Z,38.48
2023-05-25T14:01:45.654Z,38.74
2023-05-25T14:11:49.401Z,38.31
2023-05-25T14:22:11.127Z,38.29
2023-05-25T14:32:19.530Z,37.75
2023-05-25T14:42:28.857Z,37.20
2023-05-25T14:52:32.662Z,37.70
2023-05-25T15:02:38.606Z,37.24
2023-05-25T15:12:44.767Z,37.36
2023-05-25T15:22:48.526Z,38.35
2023-05-25T15:32:52.213Z,39.35
2023-05-25T15:42:56.395Z,39.51
2023-05-25T15:53:02.214Z,40.32
2023-05-25T16:03:07.107Z,41.41
2023-05-25T16:13:10.852Z,42.70
2023-05-25T16:23:16.562Z,42.88
2023-05-25T16:33:20.187Z,43.64
2023-05-25T16:43:26.642Z,44.82
2023-05-25T16:53:30.386Z,46.34
2023-05-25T17:03:36.053Z,47.15
2023-05-25T17:13:40.072Z,47.56
2023-05-25T17:23:44.129Z,47.63
2023-05-25T17:33:48.101Z,47.40
2023-05-25T17:43:54.161Z,47.07
2023-05-25T17:53:59.192Z,48.54
2023-05-25T18:04:05.198Z,49.85
2023-05-25T18:14:08.894Z,50.79
2023-05-25T18:24:13.526Z,51.98
2023-05-25T18:34:17.579Z,53.05
2023-05-25T18:44:21.382Z,53.98
2023-05-25T18:54:28.327Z,54.54
2023-05-25T19:04:35.651Z,54.71
2023-05-25T19:14:39.238Z,54.31
2023-05-25T19:24:46.973Z,53.51
2023-05-25T19:34:53.213Z,53.77
2023-05-25T19:45:00.160Z,53.49
2023-05-25T19:55:04.271Z,53.30
2023-05-25T20:05:10.941Z,52.94
2023-05-25T20:15:14.689Z,52.31
2023-05-25T20:25:18.677Z,51.51
2023-05-25T20:35:24.378Z,49.64
2023-05-25T20:45:29.556Z,48.64
2023-05-25T20:55:33.369Z,48.72
2023-05-25T21:05:38.316Z,49.10
2023-05-25T21:15:44.454Z,48.63
2023-05-25T21:25:48.887Z,48.26
2023-05-25T21:35:54.444Z,48.36
2023-05-25T21:45:58.277Z,48.78
2023-05-25T21:56:02.109Z,48.73
2023-05-25T22:06:05.876Z,49.18
2023-05-25T22:16:13.165Z,49.68
2023-05-25T22:26:17.009Z,49.55
2023-05-25T22:36:20.668Z,49.54
2023-05-25T22:46:26.305Z,50.02
2023-05-25T22:56:30.582Z,50.72
2023-05-25T23:06:34.273Z,51.86
2023-05-25T23:16:41.786Z,52.97
2023-05-25T23:26:45.497Z,53.06
2023-05-25T23:36:49.066Z,53.38
2023-05-25T23:46:55.698Z,53.96
2023-05-25T23:56:59.511Z,54.58
